sensor_id;sensor_type;location;lat;lon;timestamp;temperature;humidity
37285;DHT22;23172;53.550;9.964;2023-05-10T00:02:06;17.20;45.80
37285;DHT22;23172;53.550;9.964;2023-05-10T00:07:08;17.20;46.00
37285;DHT22;23172;53.550;9.964;2023-05-10T00:12:10;17.20;46.20
37285;DHT22;23172;53.550;9.964;2023-05-10T00:17:14;17.10;46.70
37285;DHT22;23172;53.550;9.964;2023-05-10T00:22:15;17.00;46.80
37285;DHT22;23172;53.550;9.964;2023-05-10T00:27:17;17.00;46.90
37285;DHT22;23172;53.550;9.964;2023-05-10T00:32:20;17.00;47.10
37285;DHT22;23172;53.550;9.964;2023-05-10T00:37:22;17.00;47.40
37285;DHT22;23172;53.550;9.964;2023-05-10T00:42:24;16.90;47.60
37285;DHT22;23172;53.550;9.964;2023-05-10T00:47:28;16.80;47.90
37285;DHT22;23172;53.550;9.964;2023-05-10T00:52:30;16.80;48.10
37285;DHT22;23172;53.550;9.964;2023-05-10T00:57:32;16.80;48.10
37285;DHT22;23172;53.550;9.964;2023-05-10T01:02:35;16.80;48.40
37285;DHT22;23172;53.550;9.964;2023-05-10T01:07:37;16.70;48.40
37285;DHT22;23172;53.550;9.964;2023-05-10T01:12:40;16.70;48.60
37285;DHT22;23172;53.550;9.964;2023-05-10T01:17:47;16.70;48.70
37285;DHT22;23172;53.550;9.964;2023-05-10T01:28:49;16.60;49.10
37285;DHT22;23172;53.550;9.964;2023-05-10T01:33:57;16.50;49.30
37285;DHT22;23172;53.550;9.964;2023-05-10T01:39:05;16.50;49.40
37285;DHT22;23172;53.550;9.964;2023-05-10T01:44:16;16.40;49.60
37285;DHT22;23172;53.550;9.964;2023-05-10T01:49:24;16.40;49.80
37285;DHT22;23172;53.550;9.964;2023-05-10T01:54:27;16.30;50.10
37285;DHT22;23172;53.550;9.964;2023-05-10T01:59:34;16.30;50.20
37285;DHT22;23172;53.550;9.964;2023-05-10T02:04:42;16.10;50.50
37285;DHT22;23172;53.550;9.964;2023-05-10T02:09:45;16.10;50.70
37285;DHT22;23172;53.550;9.964;2023-05-10T02:14:49;16.10;50.80
37285;DHT22;23172;53.550;9.964;2023-05-10T02:19:55;16.00;51.20
37285;DHT22;23172;53.550;9.964;2023-05-10T02:24:59;16.00;51.30
37285;DHT22;23172;53.550;9.964;2023-05-10T02:30:01;15.90;51.40
37285;DHT22;23172;53.550;9.964;2023-05-10T02:35:06;15.90;51.80
37285;DHT22;23172;53.550;9.964;2023-05-10T02:40:10;15.80;51.80
37285;DHT22;23172;53.550;9.964;2023-05-10T02:45:14;15.80;52.00
37285;DHT22;23172;53.550;9.964;2023-05-10T02:50:18;15.70;52.00
37285;DHT22;23172;53.550;9.964;2023-05-10T02:55:23;15.70;52.30
37285;DHT22;23172;53.550;9.964;2023-05-10T03:00:27;15.60;52.50
37285;DHT22;23172;53.550;9.964;2023-05-10T03:05:30;15.60;53.20
37285;DHT22;23172;53.550;9.964;2023-05-10T03:10:33;15.60;52.70
37285;DHT22;23172;53.550;9.964;2023-05-10T03:15:48;15.60;52.60
37285;DHT22;23172;53.550;9.964;2023-05-10T03:20:59;15.60;52.70
37285;DHT22;23172;53.550;9.964;2023-05-10T03:26:03;15.60;52.80
37285;DHT22;23172;53.550;9.964;2023-05-10T03:31:06;15.60;52.80
37285;DHT22;23172;53.550;9.964;2023-05-10T03:36:10;15.60;53.00
37285;DHT22;23172;53.550;9.964;2023-05-10T03:41:12;15.60;53.10
37285;DHT22;23172;53.550;9.964;2023-05-10T03:46:14;15.50;53.20
37285;DHT22;23172;53.550;9.964;2023-05-10T03:51:17;15.50;53.40
37285;DHT22;23172;53.550;9.964;2023-05-10T03:56:19;15.50;53.40
37285;DHT22;23172;53.550;9.964;2023-05-10T04:01:21;15.50;53.40
37285;DHT22;23172;53.550;9.964;2023-05-10T04:06:25;15.50;53.60
37285;DHT22;23172;53.550;9.964;2023-05-10T04:11:27;15.50;54.30
37285;DHT22;23172;53.550;9.964;2023-05-10T04:16:28;15.40;53.80
37285;DHT22;23172;53.550;9.964;2023-05-10T04:21:32;15.40;53.80
37285;DHT22;23172;53.550;9.964;2023-05-10T04:26:33;15.50;53.90
37285;DHT22;23172;53.550;9.964;2023-05-10T04:31:35;15.50;54.00
37285;DHT22;23172;53.550;9.964;2023-05-10T04:36:39;15.40;54.20
37285;DHT22;23172;53.550;9.964;2023-05-10T04:41:40;15.40;54.10
37285;DHT22;23172;53.550;9.964;2023-05-10T04:46:42;15.50;54.20
37285;DHT22;23172;53.550;9.964;2023-05-10T04:51:45;15.40;55.00
37285;DHT22;23172;53.550;9.964;2023-05-10T04:56:47;15.40;54.40
37285;DHT22;23172;53.550;9.964;2023-05-10T05:01:49;15.40;54.40
37285;DHT22;23172;53.550;9.964;2023-05-10T05:06:53;15.50;54.30
37285;DHT22;23172;53.550;9.964;2023-05-10T05:11:55;15.60;54.40
37285;DHT22;23172;53.550;9.964;2023-05-10T05:16:56;15.60;54.40
37285;DHT22;23172;53.550;9.964;2023-05-10T05:22:00;15.70;54.30
37285;DHT22;23172;53.550;9.964;2023-05-10T05:27:02;15.70;54.30
37285;DHT22;23172;53.550;9.964;2023-05-10T05:32:04;15.70;54.40
37285;DHT22;23172;53.550;9.964;2023-05-10T05:37:07;15.90;54.20
37285;DHT22;23172;53.550;9.964;2023-05-10T05:42:14;16.00;54.00
37285;DHT22;23172;53.550;9.964;2023-05-10T05:47:17;16.00;54.20
37285;DHT22;23172;53.550;9.964;2023-05-10T05:52:20;16.20;54.10
37285;DHT22;23172;53.550;9.964;2023-05-10T05:57:22;16.30;53.80
37285;DHT22;23172;53.550;9.964;2023-05-10T06:02:24;16.40;54.20
37285;DHT22;23172;53.550;9.964;2023-05-10T06:07:27;16.40;53.70
37285;DHT22;23172;53.550;9.964;2023-05-10T06:12:29;16.50;53.60
37285;DHT22;23172;53.550;9.964;2023-05-10T06:17:31;16.70;53.50
37285;DHT22;23172;53.550;9.964;2023-05-10T06:22:34;17.00;53.10
37285;DHT22;23172;53.550;9.964;2023-05-10T06:27:36;17.20;52.70
37285;DHT22;23172;53.550;9.964;2023-05-10T06:32:37;17.30;52.40
37285;DHT22;23172;53.550;9.964;2023-05-10T06:37:41;17.50;52.00
37285;DHT22;23172;53.550;9.964;2023-05-10T06:42:42;17.40;51.90
37285;DHT22;23172;53.550;9.964;2023-05-10T06:47:45;17.40;52.30
37285;DHT22;23172;53.550;9.964;2023-05-10T06:52:48;17.50;52.10
37285;DHT22;23172;53.550;9.964;2023-05-10T06:57:50;17.80;52.50
37285;DHT22;23172;53.550;9.964;2023-05-10T07:02:52;18.10;51.50
37285;DHT22;23172;53.550;9.964;2023-05-10T07:07:55;18.50;51.10
37285;DHT22;23172;53.550;9.964;2023-05-10T07:12:57;18.70;50.70
37285;DHT22;23172;53.550;9.964;2023-05-10T07:17:59;19.00;50.40
37285;DHT22;23172;53.550;9.964;2023-05-10T07:23:02;19.30;49.90
37285;DHT22;23172;53.550;9.964;2023-05-10T07:28:04;19.60;49.40
37285;DHT22;23172;53.550;9.964;2023-05-10T07:33:06;19.60;49.40
37285;DHT22;23172;53.550;9.964;2023-05-10T07:38:10;19.70;49.10
37285;DHT22;23172;53.550;9.964;2023-05-10T07:43:12;19.80;48.80
37285;DHT22;23172;53.550;9.964;2023-05-10T07:48:14;20.00;48.20
37285;DHT22;23172;53.550;9.964;2023-05-10T07:53:17;20.10;47.90
37285;DHT22;23172;53.550;9.964;2023-05-10T07:58:19;20.00;47.60
37285;DHT22;23172;53.550;9.964;2023-05-10T08:03:21;19.90;47.80
37285;DHT22;23172;53.550;9.964;2023-05-10T08:08:24;19.90;48.00
37285;DHT22;23172;53.550;9.964;2023-05-10T08:13:27;19.80;48.20
37285;DHT22;23172;53.550;9.964;2023-05-10T08:18:28;19.90;48.00
37285;DHT22;23172;53.550;9.964;2023-05-10T08:23:32;19.90;48.00
37285;DHT22;23172;53.550;9.964;2023-05-10T08:28:34;20.10;47.80
37285;DHT22;23172;53.550;9.964;2023-05-10T08:33:36;20.20;47.60
37285;DHT22;23172;53.550;9.964;2023-05-10T08:38:39;20.70;47.40
37285;DHT22;23172;53.550;9.964;2023-05-10T08:43:41;21.10;46.80
37285;DHT22;23172;53.550;9.964;2023-05-10T08:48:47;21.30;46.30
37285;DHT22;23172;53.550;9.964;2023-05-10T08:53:51;21.40;46.20
37285;DHT22;23172;53.550;9.964;2023-05-10T08:58:53;21.90;45.70
37285;DHT22;23172;53.550;9.964;2023-05-10T09:03:55;22.20;45.20
37285;DHT22;23172;53.550;9.964;2023-05-10T09:09:00;22.10;45.30
37285;DHT22;23172;53.550;9.964;2023-05-10T09:14:04;22.00;45.90
37285;DHT22;23172;53.550;9.964;2023-05-10T09:19:06;22.30;45.90
37285;DHT22;23172;53.550;9.964;2023-05-10T09:24:10;22.20;46.30
37285;DHT22;23172;53.550;9.964;2023-05-10T09:29:12;21.90;46.20
37285;DHT22;23172;53.550;9.964;2023-05-10T09:34:18;21.60;46.80
37285;DHT22;23172;53.550;9.964;2023-05-10T09:39:30;21.30;48.20
37285;DHT22;23172;53.550;9.964;2023-05-10T09:44:32;20.90;49.90
37285;DHT22;23172;53.550;9.964;2023-05-10T09:49:35;20.60;51.60
37285;DHT22;23172;53.550;9.964;2023-05-10T09:54:38;20.30;52.60
37285;DHT22;23172;53.550;9.964;2023-05-10T09:59:47;20.20;53.60
37285;DHT22;23172;53.550;9.964;2023-05-10T10:04:49;20.10;53.70
37285;DHT22;23172;53.550;9.964;2023-05-10T10:09:54;19.80;54.50
37285;DHT22;23172;53.550;9.964;2023-05-10T10:14:57;19.50;56.50
37285;DHT22;23172;53.550;9.964;2023-05-10T10:20:02;19.20;57.70
37285;DHT22;23172;53.550;9.964;2023-05-10T10:25:07;19.20;58.00
37285;DHT22;23172;53.550;9.964;2023-05-10T10:30:16;19.10;58.30
37285;DHT22;23172;53.550;9.964;2023-05-10T10:35:20;19.00;59.20
37285;DHT22;23172;53.550;9.964;2023-05-10T10:40:25;19.00;59.90
37285;DHT22;23172;53.550;9.964;2023-05-10T10:45:27;18.80;60.80
37285;DHT22;23172;53.550;9.964;2023-05-10T10:50:29;18.80;61.30
37285;DHT22;23172;53.550;9.964;2023-05-10T10:55:32;18.90;61.90
37285;DHT22;23172;53.550;9.964;2023-05-10T11:00:36;19.00;62.10
37285;DHT22;23172;53.550;9.964;2023-05-10T11:05:40;19.10;62.60
37285;DHT22;23172;53.550;9.964;2023-05-10T11:11:02;19.20;63.00
37285;DHT22;23172;53.550;9.964;2023-05-10T11:16:16;19.30;63.40
37285;DHT22;23172;53.550;9.964;2023-05-10T11:21:18;19.30;63.40
37285;DHT22;23172;53.550;9.964;2023-05-10T11:26:22;19.20;63.20
37285;DHT22;23172;53.550;9.964;2023-05-10T11:31:26;19.10;64.50
37285;DHT22;23172;53.550;9.964;2023-05-10T11:36:31;19.10;64.20
37285;DHT22;23172;53.550;9.964;2023-05-10T11:41:35;19.00;64.50
37285;DHT22;23172;53.550;9.964;2023-05-10T11:46:37;19.00;66.20
37285;DHT22;23172;53.550;9.964;2023-05-10T11:51:39;18.80;66.80
37285;DHT22;23172;53.550;9.964;2023-05-10T11:56:44;18.50;68.30
37285;DHT22;23172;53.550;9.964;2023-05-10T12:01:46;18.50;69.60
37285;DHT22;23172;53.550;9.964;2023-05-10T12:06:47;18.50;71.00
37285;DHT22;23172;53.550;9.964;2023-05-10T12:11:55;18.60;71.60
37285;DHT22;23172;53.550;9.964;2023-05-10T12:16:57;18.70;73.70
37285;DHT22;23172;53.550;9.964;2023-05-10T12:21:59;18.80;74.40
37285;DHT22;23172;53.550;9.964;2023-05-10T12:27:07;19.10;75.60
37285;DHT22;23172;53.550;9.964;2023-05-10T12:32:09;19.30;75.20
37285;DHT22;23172;53.550;9.964;2023-05-10T12:37:12;19.30;75.50
37285;DHT22;23172;53.550;9.964;2023-05-10T12:42:16;19.30;76.40
37285;DHT22;23172;53.550;9.964;2023-05-10T12:47:18;19.30;78.30
37285;DHT22;23172;53.550;9.964;2023-05-10T12:52:20;19.50;78.70
37285;DHT22;23172;53.550;9.964;2023-05-10T12:57:23;19.90;78.70
37285;DHT22;23172;53.550;9.964;2023-05-10T13:02:25;20.20;77.80
37285;DHT22;23172;53.550;9.964;2023-05-10T13:07:27;20.50;77.40
37285;DHT22;23172;53.550;9.964;2023-05-10T13:12:30;20.60;76.70
37285;DHT22;23172;53.550;9.964;2023-05-10T13:17:32;20.40;76.70
37285;DHT22;23172;53.550;9.964;2023-05-10T13:22:34;20.20;77.90
37285;DHT22;23172;53.550;9.964;2023-05-10T13:27:37;20.00;77.90
37285;DHT22;23172;53.550;9.964;2023-05-10T13:32:39;19.90;78.70
37285;DHT22;23172;53.550;9.964;2023-05-10T13:37:41;19.90;79.30
37285;DHT22;23172;53.550;9.964;2023-05-10T13:42:44;20.00;79.10
37285;DHT22;23172;53.550;9.964;2023-05-10T13:47:46;20.00;79.40
37285;DHT22;23172;53.550;9.964;2023-05-10T13:52:48;19.90;79.60
37285;DHT22;23172;53.550;9.964;2023-05-10T13:57:51;19.90;80.20
37285;DHT22;23172;53.550;9.964;2023-05-10T14:02:54;20.00;80.40
37285;DHT22;23172;53.550;9.964;2023-05-10T14:07:55;20.40;79.50
37285;DHT22;23172;53.550;9.964;2023-05-10T14:12:59;20.70;78.00
37285;DHT22;23172;53.550;9.964;2023-05-10T14:18:01;20.80;77.20
37285;DHT22;23172;53.550;9.964;2023-05-10T14:23:02;20.70;76.30
37285;DHT22;23172;53.550;9.964;2023-05-10T14:28:06;20.80;76.10
37285;DHT22;23172;53.550;9.964;2023-05-10T14:33:07;20.80;75.50
37285;DHT22;23172;53.550;9.964;2023-05-10T14:38:09;20.60;75.50
37285;DHT22;23172;53.550;9.964;2023-05-10T14:43:14;20.40;76.10
37285;DHT22;23172;53.550;9.964;2023-05-10T14:48:16;20.10;76.80
37285;DHT22;23172;53.550;9.964;2023-05-10T14:53:18;20.00;77.30
37285;DHT22;23172;53.550;9.964;2023-05-10T14:58:21;19.90;78.00
37285;DHT22;23172;53.550;9.964;2023-05-10T15:03:23;19.80;78.40
37285;DHT22;23172;53.550;9.964;2023-05-10T15:08:25;19.60;79.30
37285;DHT22;23172;53.550;9.964;2023-05-10T15:13:28;19.60;80.00
37285;DHT22;23172;53.550;9.964;2023-05-10T15:18:30;19.80;79.90
37285;DHT22;23172;53.550;9.964;2023-05-10T15:23:32;19.90;79.50
37285;DHT22;23172;53.550;9.964;2023-05-10T15:28:35;19.90;79.30
37285;DHT22;23172;53.550;9.964;2023-05-10T15:33:37;19.90;79.50
37285;DHT22;23172;53.550;9.964;2023-05-10T15:38:39;19.90;79.70
37285;DHT22;23172;53.550;9.964;2023-05-10T15:43:42;19.60;80.10
37285;DHT22;23172;53.550;9.964;2023-05-10T15:48:44;19.50;81.00
37285;DHT22;23172;53.550;9.964;2023-05-10T15:53:46;19.30;81.90
37285;DHT22;23172;53.550;9.964;2023-05-10T15:58:49;19.20;83.80
37285;DHT22;23172;53.550;9.964;2023-05-10T16:03:51;19.10;84.60
37285;DHT22;23172;53.550;9.964;2023-05-10T16:49:16;18.90;90.40
